Terminal Aerodrome Forecast
Issued by NWS

Home | Current Version | Previous Version | Text Only | Print | Product List | Glossary On
Versions: 1 2 3 4 5 6 7 8 9 10 11 12 13 14 15 16 17 18 19
000
FTUS41 KBOX 221237 AAA
TAFFMH
TAF AMD
KFMH 221237Z 2213/2312 22008KT P6SM OVC006
     FM221400 21013G22KT P6SM SCT050
     FM222200 22015G24KT P6SM BKN020
     FM230000 22015G23KT P6SM BKN015
     FM230300 22016G28KT 5SM BR BKN010
     FM230800 21015G25KT 4SM BR VCSH OVC010=

USA.gov is the U.S. government's official web portal to all federal, state and local government web resources and services.